Terminal Aerodrome Forecast
Issued by NWS

Home | Current Version | Previous Version | Graphics & Text | Print | Product List | Glossary On
Versions: 1 2 3 4 5 6 7 8 9 10 11 12 13 14 15 16 17 18 19 20 21 22
358
FTUS43 KFGF 221133
TAFBJI
TAF
KBJI 221133Z 2212/2312 VRB03KT 5SM BR BKN250
     FM221400 12007KT P6SM BKN035
     FM221700 13009KT P6SM BKN015
     FM222200 15009KT P6SM BKN045
     FM230400 20010KT P6SM SCT150
     FM230500 26010KT P6SM BKN015
     FM230800 28010KT P6SM BKN003=

USA.gov is the U.S. government's official web portal to all federal, state and local government web resources and services.